Time;durP1;ratioP1;P1;durP2;ratioP2;P2;SDS_P1;SDS_P2;PMS_P1;PMS_P2;Temp;Humidity;BMP_temperature;BMP_pressure;BME280_temperature;BME280_humidity;BME280_pressure;Samples;Min_cycle;Max_cycle;Signal;HPM_P1;HPM_P2
2022/07/13 00:00:28;;;;;;;7.80;1.85;;;;;;;19.51;38.96;101488.56;5111480;28;20131;-70
2022/07/13 00:02:55;;;;;;;2.13;1.33;;;;;;;19.39;39.25;101480.13;5110517;28;20060;-70
2022/07/13 00:05:22;;;;;;;2.80;1.40;;;;;;;19.42;39.13;101471.56;5111299;28;20480;-71
2022/07/13 00:07:49;;;;;;;2.80;1.35;;;;;;;19.43;39.16;101478.69;5114528;28;20082;-71
2022/07/13 00:10:15;;;;;;;6.40;1.20;;;;;;;19.35;39.34;101470.69;5114567;28;20070;-70
2022/07/13 00:12:42;;;;;;;3.38;1.45;;;;;;;19.42;39.07;101473.44;5114541;28;20079;-70
2022/07/13 00:15:09;;;;;;;1.90;1.60;;;;;;;19.45;38.94;101468.44;5114947;28;20071;-71
2022/07/13 00:17:36;;;;;;;3.97;1.60;;;;;;;19.39;39.29;101469.25;5114117;28;20131;-70
2022/07/13 00:20:03;;;;;;;2.65;1.70;;;;;;;19.43;39.33;101475.94;5113573;28;20043;-70
2022/07/13 00:22:29;;;;;;;5.15;1.50;;;;;;;19.40;39.31;101475.50;5114562;28;20391;-70
2022/07/13 00:24:56;;;;;;;3.20;1.58;;;;;;;19.37;39.34;101471.31;5086378;28;20066;-70
2022/07/13 00:27:22;;;;;;;7.32;1.73;;;;;;;19.31;39.58;101463.97;5112303;28;20044;-70
2022/07/13 00:29:49;;;;;;;3.55;2.15;;;;;;;19.30;39.65;101462.25;5114040;28;20054;-70
2022/07/13 00:32:16;;;;;;;2.22;1.77;;;;;;;19.32;39.77;101457.47;5113470;28;20050;-71
2022/07/13 00:34:42;;;;;;;2.65;1.60;;;;;;;19.27;39.97;101459.94;5113960;28;20480;-70
2022/07/13 00:37:09;;;;;;;4.28;1.33;;;;;;;19.26;39.71;101464.53;5114511;28;20126;-71
2022/07/13 00:39:35;;;;;;;2.97;1.70;;;;;;;19.31;39.79;101455.81;5113856;28;20476;-70
2022/07/13 00:42:02;;;;;;;2.50;1.73;;;;;;;19.23;40.07;101450.50;5114869;28;20092;-70
2022/07/13 00:44:29;;;;;;;7.32;1.90;;;;;;;19.22;40.30;101457.84;5113395;28;20047;-70
2022/07/13 00:46:55;;;;;;;5.20;1.58;;;;;;;19.26;39.98;101456.38;5114258;28;20119;-70
2022/07/13 00:49:23;;;;;;;4.78;2.10;;;;;;;19.16;40.45;101455.91;5113975;28;20044;-71
2022/07/13 00:51:49;;;;;;;3.60;2.35;;;;;;;19.18;40.48;101448.41;5113770;28;20126;-71
2022/07/13 00:54:19;;;;;;;3.72;2.58;;;;;;;19.27;40.49;101449.06;5113346;28;20072;-70
2022/07/13 00:56:47;;;;;;;8.15;2.17;;;;;;;19.18;40.61;101447.56;5113951;28;20134;-69
2022/07/13 00:59:14;;;;;;;3.50;1.50;;;;;;;19.18;40.75;101444.84;5112116;28;20088;-70
2022/07/13 01:01:41;;;;;;;3.72;1.45;;;;;;;19.23;40.78;101434.19;5113822;28;20070;-68
2022/07/13 01:04:08;;;;;;;2.53;1.50;;;;;;;19.23;40.71;101431.47;5109228;28;20156;-68
2022/07/13 01:07:15;;;;;;;2.58;1.90;;;;;;;19.16;40.81;101431.41;5110725;28;20048;-68
2022/07/13 01:09:41;;;;;;;3.88;1.60;;;;;;;19.16;41.10;101436.84;5093150;28;20075;-69
2022/07/13 01:12:08;;;;;;;1.95;1.50;;;;;;;19.23;40.93;101431.47;5092168;28;20075;-69
2022/07/13 01:14:36;;;;;;;3.30;1.60;;;;;;;19.11;41.37;101423.03;5089551;28;20044;-69
2022/07/13 01:17:03;;;;;;;6.95;1.90;;;;;;;19.26;41.20;101425.63;5091644;28;20102;-69
2022/07/13 01:19:32;;;;;;;3.50;2.03;;;;;;;19.25;41.25;101432.13;5087412;28;20040;-69
2022/07/13 01:22:01;;;;;;;5.75;2.03;;;;;;;19.21;41.38;101430.84;5113458;28;20074;-69
2022/07/13 01:24:30;;;;;;;3.20;1.80;;;;;;;19.23;41.21;101434.19;5106601;28;20053;-69
2022/07/13 01:26:58;;;;;;;4.85;1.40;;;;;;;19.35;41.12;101434.47;5102317;28;20047;-69
2022/07/13 01:29:25;;;;;;;3.88;1.67;;;;;;;19.26;41.36;101421.03;5103806;28;20044;-69
2022/07/13 01:31:58;;;;;;;7.60;1.85;;;;;;;19.18;41.83;101425.81;5092711;28;20127;-69
2022/07/13 01:34:25;;;;;;;2.80;1.35;;;;;;;19.25;41.46;101429.41;5101759;28;20047;-68
2022/07/13 01:36:52;;;;;;;4.25;1.45;;;;;;;19.23;41.69;101426.03;5113103;28;20131;-68
2022/07/13 01:39:19;;;;;;;2.50;1.33;;;;;;;19.26;41.73;101429.19;5113323;28;20081;-69
2022/07/13 01:41:46;;;;;;;2.42;1.15;;;;;;;19.38;41.44;101425.88;5109155;28;20043;-69
2022/07/13 01:44:14;;;;;;;2.63;1.38;;;;;;;19.33;41.43;101420.22;5093606;28;20127;-68
2022/07/13 01:46:40;;;;;;;2.08;1.10;;;;;;;19.22;41.54;101422.47;5092964;28;20048;-70
2022/07/13 01:49:07;;;;;;;2.40;1.20;;;;;;;19.34;41.41;101421.91;5092178;28;20044;-70
2022/07/13 01:51:33;;;;;;;4.28;1.30;;;;;;;19.21;41.72;101423.53;5092840;28;20071;-69
2022/07/13 01:54:00;;;;;;;3.40;1.23;;;;;;;19.32;41.52;101424.84;5092330;28;20492;-69
2022/07/13 01:56:27;;;;;;;2.65;1.40;;;;;;;19.37;41.48;101418.78;5092630;28;20108;-70
2022/07/13 01:58:53;;;;;;;3.55;1.42;;;;;;;19.43;41.53;101415.25;5097102;28;20075;-69
2022/07/13 02:01:20;;;;;;;2.88;1.50;;;;;;;19.26;41.68;101409.31;5112020;28;20154;-69
2022/07/13 02:03:47;;;;;;;2.00;1.42;;;;;;;19.47;41.80;101401.03;5112853;28;20139;-70
2022/07/13 02:06:14;;;;;;;2.78;1.25;;;;;;;19.43;41.93;101394.31;5112744;28;20411;-69
2022/07/13 02:08:40;;;;;;;3.88;1.27;;;;;;;19.26;42.31;101395.69;5111978;28;20131;-69
2022/07/13 02:11:07;;;;;;;4.68;1.40;;;;;;;19.42;42.02;101389.94;5099122;28;20474;-69
2022/07/13 02:13:33;;;;;;;3.80;1.30;;;;;;;19.37;42.63;101394.28;5110833;28;20070;-70
2022/07/13 02:16:00;;;;;;;7.55;1.45;;;;;;;19.38;42.35;101394.09;5112622;28;20126;-69
2022/07/13 02:18:26;;;;;;;3.53;1.45;;;;;;;19.27;42.58;101400.09;5111803;28;20073;-70
2022/07/13 02:20:53;;;;;;;1.35;1.08;;;;;;;19.23;42.78;101399.66;5093075;28;20116;-70
2022/07/13 02:23:21;;;;;;;3.33;1.40;;;;;;;19.29;42.95;101395.31;5111023;28;20476;-68
2022/07/13 02:25:47;;;;;;;6.25;1.55;;;;;;;19.23;43.03;101405.09;5112788;28;20126;-69
2022/07/13 02:28:14;;;;;;;2.00;1.40;;;;;;;19.39;43.00;101397.66;5107837;28;20119;-69
2022/07/13 02:30:40;;;;;;;2.88;1.42;;;;;;;19.34;43.30;101394.69;5099129;28;20048;-69
2022/07/13 02:33:07;;;;;;;4.85;1.27;;;;;;;19.30;43.33;101396.97;5087953;28;20409;-67
2022/07/13 02:35:34;;;;;;;3.42;1.55;;;;;;;19.26;43.67;101393.81;5052331;28;20120;-69
2022/07/13 02:38:00;;;;;;;5.80;1.50;;;;;;;19.25;43.70;101392.16;5051981;28;20048;-68
2022/07/13 02:40:27;;;;;;;3.17;1.40;;;;;;;19.16;44.17;101393.34;5051480;28;20076;-68
2022/07/13 02:42:53;;;;;;;2.92;1.60;;;;;;;19.12;43.97;101396.69;5051212;28;20562;-68
2022/07/13 02:45:20;;;;;;;3.13;1.60;;;;;;;19.16;44.29;101392.50;5052005;28;20100;-68
2022/07/13 02:47:47;;;;;;;3.45;1.63;;;;;;;19.17;44.36;101400.47;5052951;28;20486;-69
2022/07/13 02:50:13;;;;;;;4.00;1.30;;;;;;;18.99;44.37;101400.16;5051669;28;20075;-69
2022/07/13 02:52:41;;;;;;;5.05;1.40;;;;;;;19.07;44.39;101394.56;5051251;28;20099;-70
2022/07/13 02:55:07;;;;;;;4.93;1.63;;;;;;;19.15;44.90;101399.84;5051813;28;20512;-69
2022/07/13 02:57:34;;;;;;;1.85;1.38;;;;;;;19.15;44.94;101393.56;5050375;28;20120;-69
2022/07/13 03:00:01;;;;;;;2.63;1.30;;;;;;;19.18;44.87;101393.16;5051446;28;20087;-69
2022/07/13 03:02:27;;;;;;;1.65;1.30;;;;;;;19.21;45.17;101390.03;5050555;28;20072;-69
2022/07/13 03:04:54;;;;;;;2.45;1.52;;;;;;;19.20;45.19;101385.63;5051208;28;20516;-69
2022/07/13 03:07:20;;;;;;;1.50;1.30;;;;;;;19.12;45.19;101391.25;5051513;28;20128;-69
2022/07/13 03:09:47;;;;;;;2.05;1.33;;;;;;;18.94;45.02;101395.31;5052267;28;20053;-69
2022/07/13 03:12:19;;;;;;;5.55;1.80;;;;;;;19.05;44.89;101391.19;5066232;28;20072;-69
2022/07/13 03:14:46;;;;;;;4.43;1.60;;;;;;;19.11;45.48;101379.53;5050290;28;20083;-69
2022/07/13 03:17:12;;;;;;;8.45;1.40;;;;;;;19.00;45.35;101377.38;5050886;28;20148;-69
2022/07/13 03:19:39;;;;;;;1.90;1.35;;;;;;;18.88;45.16;101379.75;5049959;28;20056;-69
2022/07/13 03:22:05;;;;;;;1.95;1.02;;;;;;;19.13;45.26;101382.03;5050635;28;20126;-70
2022/07/13 03:24:32;;;;;;;2.10;1.55;;;;;;;18.98;45.48;101382.16;5050110;28;20048;-69
2022/07/13 03:26:59;;;;;;;6.60;1.38;;;;;;;18.99;45.26;101375.69;5051325;28;20140;-69
2022/07/13 03:29:26;;;;;;;4.53;1.63;;;;;;;18.95;45.40;101380.69;5050592;28;20044;-69
2022/07/13 03:31:52;;;;;;;4.07;1.70;;;;;;;19.09;45.17;101383.47;5051176;28;20052;-69
2022/07/13 03:34:19;;;;;;;2.20;1.30;;;;;;;19.11;45.23;101384.13;5090032;28;20044;-69
2022/07/13 03:36:45;;;;;;;5.10;1.60;;;;;;;19.22;45.01;101378.09;5099494;28;20119;-70
2022/07/13 03:39:12;;;;;;;3.72;1.70;;;;;;;19.25;45.07;101378.53;5102944;28;20130;-70
2022/07/13 03:41:39;;;;;;;1.85;1.67;;;;;;;19.25;45.02;101375.81;5101553;28;20051;-70
2022/07/13 03:44:06;;;;;;;3.92;1.77;;;;;;;19.27;45.39;101370.16;5105455;28;20134;-69
2022/07/13 03:46:33;;;;;;;4.95;1.70;;;;;;;19.21;45.46;101368.28;5104961;28;20130;-69
2022/07/13 03:48:59;;;;;;;5.18;1.25;;;;;;;19.12;45.61;101364.88;5103831;28;20130;-70
2022/07/13 03:51:26;;;;;;;4.22;1.50;;;;;;;19.10;45.91;101366.09;5113699;28;20130;-70
2022/07/13 03:53:52;;;;;;;4.60;1.58;;;;;;;19.12;45.90;101372.19;5113996;28;20511;-70
2022/07/13 03:56:19;;;;;;;10.25;2.05;;;;;;;19.35;45.21;101369.19;5114877;28;20071;-70
2022/07/13 03:58:45;;;;;;;4.22;1.80;;;;;;;18.92;45.99;101369.31;5114983;28;20048;-69
2022/07/13 04:01:11;;;;;;;3.10;1.45;;;;;;;18.87;46.05;101360.94;5115330;28;20039;-68
2022/07/13 04:03:38;;;;;;;2.67;1.50;;;;;;;18.79;46.04;101367.34;5114320;28;20135;-69
2022/07/13 04:06:05;;;;;;;5.65;1.38;;;;;;;19.01;45.57;101369.00;5115119;28;20055;-69
2022/07/13 04:08:31;;;;;;;5.43;3.33;;;;;;;19.19;45.67;101362.19;5114313;28;20043;-69
2022/07/13 04:10:58;;;;;;;3.60;1.38;;;;;;;19.10;45.61;101364.22;5113912;28;20135;-68
2022/07/13 04:13:24;;;;;;;5.45;1.63;;;;;;;19.10;45.67;101353.34;5113398;28;20044;-70
2022/07/13 04:15:51;;;;;;;2.42;1.60;;;;;;;19.08;45.58;101350.00;5113987;28;20051;-69
2022/07/13 04:18:18;;;;;;;3.80;1.70;;;;;;;19.10;45.83;101355.22;5115308;28;20068;-69
2022/07/13 04:20:44;;;;;;;2.38;1.60;;;;;;;19.08;46.03;101363.59;5114501;28;20044;-69
2022/07/13 04:23:11;;;;;;;5.13;1.60;;;;;;;19.01;46.18;101357.28;5114692;28;20135;-68
2022/07/13 04:25:37;;;;;;;1.88;1.50;;;;;;;19.15;45.85;101350.03;5115137;28;20063;-69
2022/07/13 04:28:04;;;;;;;3.85;1.70;;;;;;;19.29;45.84;101351.78;5107429;28;20071;-69
2022/07/13 04:30:31;;;;;;;2.60;1.38;;;;;;;19.14;46.28;101360.09;5083526;28;20051;-69
2022/07/13 04:32:57;;;;;;;2.53;1.33;;;;;;;19.16;46.15;101359.88;5089801;28;20147;-69
2022/07/13 04:35:24;;;;;;;6.18;1.70;;;;;;;19.29;45.96;101367.25;5055109;28;20132;-69
2022/07/13 04:37:50;;;;;;;1.95;1.50;;;;;;;19.40;45.73;101362.06;5073614;28;20140;-68
2022/07/13 04:40:17;;;;;;;3.58;1.55;;;;;;;19.43;45.73;101356.22;5073778;28;20139;-69
2022/07/13 04:42:43;;;;;;;7.63;1.80;;;;;;;19.29;45.99;101365.38;5073065;28;20131;-68
2022/07/13 04:45:10;;;;;;;3.25;1.55;;;;;;;19.41;45.63;101369.19;5073447;28;20132;-68
2022/07/13 04:47:37;;;;;;;5.15;1.75;;;;;;;19.45;45.86;101362.31;5073635;28;20051;-69
2022/07/13 04:50:04;;;;;;;5.78;1.67;;;;;;;19.31;46.02;101355.16;5073527;28;20072;-70
2022/07/13 04:52:31;;;;;;;2.83;1.52;;;;;;;19.40;45.79;101362.06;5073654;28;20041;-69
2022/07/13 04:54:57;;;;;;;2.45;1.60;;;;;;;19.44;45.69;101352.44;5072182;28;20067;-70
2022/07/13 04:57:24;;;;;;;3.20;1.55;;;;;;;19.39;45.80;101344.06;5073307;28;20157;-69
2022/07/13 04:59:50;;;;;;;3.90;1.73;;;;;;;19.61;45.66;101349.38;5073871;28;20044;-70
2022/07/13 05:02:17;;;;;;;4.13;1.23;;;;;;;19.44;45.61;101354.34;5073861;28;20047;-70
2022/07/13 05:04:43;;;;;;;5.32;1.70;;;;;;;19.40;45.63;101353.91;5073440;28;20048;-68
2022/07/13 05:07:10;;;;;;;4.85;1.70;;;;;;;19.12;46.56;101354.00;5072655;28;20127;-69
2022/07/13 05:09:36;;;;;;;6.55;1.55;;;;;;;19.18;46.35;101352.34;5072848;28;20449;-69
2022/07/13 05:12:03;;;;;;;2.88;1.48;;;;;;;19.42;46.18;101351.84;5073289;28;20131;-68
2022/07/13 05:14:30;;;;;;;9.68;1.70;;;;;;;19.37;45.78;101357.03;5071567;28;20124;-69
2022/07/13 05:16:56;;;;;;;3.83;1.23;;;;;;;19.57;45.53;101350.84;5073294;28;20079;-68
2022/07/13 05:19:23;;;;;;;2.67;1.90;;;;;;;19.52;45.41;101353.31;5072396;28;20040;-70
2022/07/13 05:21:50;;;;;;;5.03;1.88;;;;;;;19.64;45.28;101357.13;5072660;28;20132;-69
2022/07/13 05:24:16;;;;;;;4.18;1.52;;;;;;;19.69;45.21;101346.50;5072747;28;20064;-70
2022/07/13 05:26:43;;;;;;;3.22;1.67;;;;;;;19.72;45.21;101343.34;5073084;28;20076;-69
2022/07/13 05:29:09;;;;;;;2.78;1.55;;;;;;;19.66;45.30;101344.16;5087811;28;20150;-70
2022/07/13 05:31:36;;;;;;;3.70;1.35;;;;;;;19.72;45.01;101337.91;5092647;28;20051;-70
2022/07/13 05:34:03;;;;;;;3.08;1.35;;;;;;;19.88;44.65;101345.69;5106155;28;20046;-70
2022/07/13 05:36:29;;;;;;;7.97;2.00;;;;;;;19.92;44.81;101344.25;5113982;28;20123;-70
2022/07/13 05:38:56;;;;;;;4.93;1.30;;;;;;;19.94;44.59;101341.31;5113723;28;20052;-69
2022/07/13 05:41:22;;;;;;;11.80;1.90;;;;;;;20.11;44.23;101342.59;5113954;28;20048;-70
2022/07/13 05:43:49;;;;;;;6.35;1.60;;;;;;;19.96;44.30;101342.78;5113957;28;20479;-70
2022/07/13 05:46:15;;;;;;;3.30;1.65;;;;;;;20.03;44.40;101344.66;5112710;28;20091;-70
2022/07/13 05:48:42;;;;;;;9.63;1.70;;;;;;;19.99;44.54;101346.13;5113437;28;20450;-69
2022/07/13 05:51:09;;;;;;;4.45;1.50;;;;;;;19.94;44.71;101355.78;5113324;28;20101;-69
2022/07/13 05:53:55;;;;;;;4.38;1.55;;;;;;;19.79;45.14;101346.09;5112676;28;20043;-69
2022/07/13 05:56:22;;;;;;;5.88;1.65;;;;;;;19.89;45.07;101354.69;5112824;28;20126;-69
2022/07/13 05:58:48;;;;;;;5.97;1.77;;;;;;;19.91;45.12;101350.72;5113252;28;20489;-70
2022/07/13 06:01:15;;;;;;;3.88;1.25;;;;;;;19.80;45.18;101351.34;5113693;28;20059;-70
2022/07/13 06:03:41;;;;;;;3.53;1.50;;;;;;;20.12;44.52;101347.00;5112579;28;20061;-69
2022/07/13 06:06:08;;;;;;;14.55;2.25;;;;;;;20.25;44.38;101356.19;5112597;28;20054;-68
2022/07/13 06:08:36;;;;;;;22.17;1.83;;;;;;;20.25;44.23;101348.91;5112391;28;20195;-69
2022/07/13 06:11:03;;;;;;;8.38;1.70;;;;;;;20.16;44.55;101347.41;5112983;28;20054;-70
2022/07/13 06:13:29;;;;;;;11.10;2.00;;;;;;;20.16;44.42;101348.25;5111807;28;20047;-70
2022/07/13 06:15:57;;;;;;;7.95;1.60;;;;;;;20.27;44.36;101354.94;5111346;28;20455;-70
2022/07/13 06:18:24;;;;;;;4.40;1.50;;;;;;;20.13;44.87;101351.38;5112335;28;20513;-70
2022/07/13 06:20:51;;;;;;;2.55;1.60;;;;;;;20.09;44.88;101355.56;5113046;28;20048;-70
2022/07/13 06:23:18;;;;;;;4.97;1.75;;;;;;;20.37;44.70;101347.19;5112827;28;20459;-70
2022/07/13 06:25:46;;;;;;;12.00;2.20;;;;;;;20.30;46.07;101346.38;5113035;28;20040;-70
2022/07/13 06:28:13;;;;;;;11.18;2.05;;;;;;;20.32;45.54;101344.28;5111773;28;20453;-70
2022/07/13 06:30:40;;;;;;;9.48;1.85;;;;;;;20.40;44.91;101340.53;5112008;28;20099;-70
2022/07/13 06:33:07;;;;;;;11.50;2.20;;;;;;;20.44;44.81;101345.34;5106122;28;20487;-69
2022/07/13 06:35:33;;;;;;;10.60;2.33;;;;;;;20.70;44.24;101343.66;5092180;28;20144;-70
2022/07/13 06:37:59;;;;;;;8.60;1.50;;;;;;;20.66;44.53;101339.66;5091882;28;20126;-69
2022/07/13 06:40:26;;;;;;;7.25;1.58;;;;;;;20.33;45.19;101335.03;5097791;28;20488;-70
2022/07/13 06:42:53;;;;;;;7.75;1.88;;;;;;;20.40;45.29;101338.63;5108777;28;20111;-70
2022/07/13 06:45:22;;;;;;;5.97;1.75;;;;;;;20.48;45.11;101337.56;5093046;28;20381;-70
2022/07/13 06:47:51;;;;;;;5.15;1.60;;;;;;;20.36;45.43;101334.63;5101020;28;20055;-70
2022/07/13 06:50:18;;;;;;;7.70;2.00;;;;;;;20.84;44.38;101337.13;5110333;28;20071;-69
2022/07/13 06:52:45;;;;;;;9.18;2.17;;;;;;;20.87;44.35;101339.41;5093289;28;20113;-69
2022/07/13 06:55:12;;;;;;;6.50;1.60;;;;;;;20.71;44.66;101334.41;5093519;28;20040;-69
2022/07/13 06:57:38;;;;;;;2.50;1.30;;;;;;;20.75;44.49;101332.09;5100020;28;20526;-69
2022/07/13 07:00:07;;;;;;;4.60;1.52;;;;;;;20.74;44.65;101325.81;5094996;28;20099;-69
2022/07/13 07:02:36;;;;;;;3.63;1.35;;;;;;;20.98;44.11;101326.16;5101845;28;20078;-70
2022/07/13 07:05:09;;;;;;;7.65;1.70;;;;;;;20.78;44.56;101307.13;5097436;28;20048;-69
2022/07/13 07:07:40;;;;;;;3.75;1.40;;;;;;;21.18;43.70;101310.56;5091790;28;20503;-69
2022/07/13 07:10:08;;;;;;;4.88;1.65;;;;;;;21.01;44.23;101303.88;5096202;28;20036;-70
2022/07/13 07:12:35;;;;;;;10.98;1.60;;;;;;;21.72;42.98;101302.94;5111045;28;20131;-70
2022/07/13 07:15:02;;;;;;;5.80;1.67;;;;;;;21.23;43.71;101302.59;5102972;28;20040;-70
2022/07/13 07:17:29;;;;;;;9.43;2.30;;;;;;;21.11;44.06;101293.38;5097944;28;20040;-69
2022/07/13 07:19:59;;;;;;;5.13;1.90;;;;;;;21.26;43.66;101287.69;5115240;28;20039;-70
2022/07/13 07:22:26;;;;;;;22.33;1.92;;;;;;;21.29;43.55;101288.06;5111131;28;20075;-70
2022/07/13 07:24:53;;;;;;;18.73;2.03;;;;;;;21.43;43.10;101275.19;5109516;28;20130;-69
2022/07/13 07:27:24;;;;;;;3.38;2.17;;;;;;;21.44;43.47;101270.56;5081981;28;20400;-69
2022/07/13 07:29:51;;;;;;;2.80;1.48;;;;;;;21.35;43.07;101276.25;5101054;28;20075;-69
2022/07/13 07:32:18;;;;;;;4.72;1.50;;;;;;;21.38;43.24;101275.00;5100580;28;20122;-69
2022/07/13 07:34:44;;;;;;;4.85;1.30;;;;;;;21.35;43.06;101279.00;5101087;28;20055;-70
2022/07/13 07:37:11;;;;;;;6.00;1.50;;;;;;;21.71;42.61;101282.16;5111637;28;20063;-70
2022/07/13 07:39:37;;;;;;;4.68;1.60;;;;;;;22.15;41.94;101277.63;5113487;28;20130;-70
2022/07/13 07:42:04;;;;;;;4.20;1.75;;;;;;;21.90;42.07;101273.00;5110837;28;20070;-69
2022/07/13 07:44:31;;;;;;;3.50;1.40;;;;;;;21.83;41.92;101283.13;5102319;28;20373;-69
2022/07/13 07:46:57;;;;;;;7.40;1.38;;;;;;;21.81;41.89;101283.38;5110912;28;20146;-70
2022/07/13 07:49:24;;;;;;;2.58;1.50;;;;;;;21.77;41.73;101275.78;5095794;28;20143;-69
2022/07/13 07:51:50;;;;;;;6.65;1.27;;;;;;;21.50;42.24;101276.00;5105281;28;20487;-70
2022/07/13 07:54:37;;;;;;;2.25;1.52;;;;;;;21.54;41.96;101270.94;5102931;28;20040;-69
2022/07/13 07:57:03;;;;;;;6.70;2.00;;;;;;;22.17;40.66;101279.06;5110962;28;20064;-69
2022/07/13 07:59:30;;;;;;;4.45;1.20;;;;;;;22.16;40.29;101269.22;5095581;28;20044;-69
2022/07/13 08:01:57;;;;;;;3.13;1.30;;;;;;;21.90;40.99;101278.47;5105493;28;20131;-70
2022/07/13 08:04:24;;;;;;;3.17;1.20;;;;;;;22.36;39.92;101273.63;5116180;28;20491;-70
2022/07/13 08:06:50;;;;;;;6.07;1.30;;;;;;;22.60;39.11;101281.00;5116278;28;20039;-70
2022/07/13 08:09:17;;;;;;;7.47;1.40;;;;;;;22.26;39.83;101275.00;5115382;28;20475;-70
2022/07/13 08:11:43;;;;;;;2.40;1.63;;;;;;;22.51;39.51;101274.16;5095947;28;20127;-70
2022/07/13 08:14:10;;;;;;;3.92;1.20;;;;;;;21.69;41.10;101278.81;5095284;28;20075;-69
2022/07/13 08:16:37;;;;;;;5.60;1.70;;;;;;;22.11;40.22;101266.31;5102228;28;20068;-69
2022/07/13 08:19:04;;;;;;;1.33;1.23;;;;;;;22.06;40.16;101268.88;5110110;28;20135;-69
2022/07/13 08:21:51;;;;;;;4.57;1.58;;;;;;;22.07;40.10;101255.00;5094834;28;20052;-69
2022/07/13 08:24:17;;;;;;;7.68;2.22;;;;;;;22.89;37.95;101249.31;5099489;28;20087;-70
2022/07/13 08:26:44;;;;;;;3.40;1.40;;;;;;;22.63;38.61;101242.25;5106162;28;20433;-70
2022/07/13 08:29:13;;;;;;;12.25;1.80;;;;;;;22.60;38.70;101247.34;5100432;28;20415;-70
2022/07/13 08:31:40;;;;;;;9.60;1.88;;;;;;;22.78;38.38;101250.09;5094873;28;20180;-69
2022/07/13 08:39:36;;;;;;;4.13;1.45;;;;;;;23.24;37.55;101238.56;5104034;28;20060;-69
2022/07/13 08:42:04;;;;;;;4.82;1.40;;;;;;;22.97;38.09;101237.22;5092531;28;20044;-70
2022/07/13 08:44:31;;;;;;;9.07;1.27;;;;;;;22.75;38.28;101237.69;5108983;28;20043;-70
2022/07/13 08:47:05;;;;;;;7.45;1.25;;;;;;;22.83;38.07;101242.03;5114286;28;20497;-69
2022/07/13 08:49:32;;;;;;;3.25;1.30;;;;;;;22.97;37.60;101234.47;5107862;28;20532;-70
2022/07/13 08:51:59;;;;;;;2.25;1.27;;;;;;;22.85;37.68;101236.34;5107149;28;20537;-69
2022/07/13 08:54:26;;;;;;;5.80;1.55;;;;;;;23.37;37.04;101233.97;5097709;28;20064;-69
2022/07/13 08:56:52;;;;;;;3.45;1.30;;;;;;;23.80;36.44;101235.66;5095468;28;20097;-69
2022/07/13 08:59:19;;;;;;;2.42;1.40;;;;;;;23.68;36.04;101233.69;5114333;28;20452;-69
2022/07/13 09:01:46;;;;;;;1.65;1.17;;;;;;;23.41;36.85;101230.53;5113815;28;20122;-68
2022/07/13 09:04:15;;;;;;;5.05;1.20;;;;;;;23.45;36.85;101230.91;5112650;28;20054;-70
2022/07/13 09:06:43;;;;;;;3.08;1.00;;;;;;;23.73;36.33;101231.06;5101297;28;20090;-68
2022/07/13 09:09:31;;;;;;;12.23;1.33;;;;;;;23.77;36.15;101233.38;5091450;28;20055;-69
2022/07/13 09:12:20;;;;;;;2.55;1.10;;;;;;;23.76;35.65;101228.97;5098599;28;20070;-69
2022/07/13 09:14:58;;;;;;;8.00;1.30;;;;;;;24.07;35.54;101230.53;5104331;28;21534;-69
2022/07/13 09:17:42;;;;;;;1.73;1.20;;;;;;;24.26;35.10;101225.75;5107222;28;20451;-70
2022/07/13 09:20:14;;;;;;;6.78;1.40;;;;;;;23.63;36.53;101225.34;5107574;28;20130;-70
2022/07/13 09:22:48;;;;;;;16.38;2.17;;;;;;;24.37;35.11;101228.50;5095277;28;20051;-69
2022/07/13 09:25:35;;;;;;;13.02;2.67;;;;;;;23.81;36.30;101221.69;5098068;28;20051;-69
2022/07/13 09:28:10;;;;;;;4.22;1.63;;;;;;;23.60;36.60;101219.50;5113036;28;20048;-69
2022/07/13 09:30:41;;;;;;;3.97;1.30;;;;;;;23.29;37.41;101213.22;5106283;28;20097;-69
2022/07/13 09:33:10;;;;;;;2.22;1.10;;;;;;;23.26;37.38;101217.28;5106943;28;20491;-69
2022/07/13 09:35:48;;;;;;;6.13;1.60;;;;;;;23.31;37.41;101215.75;5094598;28;20500;-69
2022/07/13 09:38:30;;;;;;;7.05;1.25;;;;;;;22.86;38.57;101206.00;5096017;28;20514;-69
2022/07/13 09:41:18;;;;;;;4.20;1.40;;;;;;;23.46;36.74;101211.47;5108727;28;20051;-69
2022/07/13 09:47:01;;;;;;;2.15;1.05;;;;;;;23.49;36.77;101210.19;5102105;28;20138;-69
2022/07/13 09:49:43;;;;;;;5.05;1.17;;;;;;;24.38;34.97;101211.00;5100083;28;20418;-69
2022/07/13 09:52:17;;;;;;;2.05;1.20;;;;;;;25.21;33.44;101206.13;5105805;28;20044;-69
2022/07/13 09:54:51;;;;;;;2.50;1.13;;;;;;;24.99;33.72;101205.09;5091915;28;20397;-69
2022/07/13 09:57:21;;;;;;;10.80;2.70;;;;;;;24.47;34.54;101203.22;5104101;28;20048;-69
2022/07/13 09:59:51;;;;;;;7.85;1.10;;;;;;;23.35;37.06;101200.50;5103090;28;20083;-69
2022/07/13 10:02:19;;;;;;;2.95;1.27;;;;;;;23.89;35.95;101195.88;5081426;28;20094;-68
2022/07/13 10:04:47;;;;;;;2.05;1.13;;;;;;;23.59;36.42;101195.91;5109083;28;20082;-68
2022/07/13 10:07:17;;;;;;;2.92;1.08;;;;;;;23.34;36.96;101198.84;5101252;28;20071;-68
2022/07/13 10:09:44;;;;;;;2.00;0.98;;;;;;;23.29;36.68;101196.78;5112488;28;20071;-68
2022/07/13 10:12:11;;;;;;;4.95;1.15;;;;;;;24.03;35.61;101196.47;5108405;28;20368;-69
2022/07/13 10:14:39;;;;;;;2.55;1.00;;;;;;;23.68;36.06;101197.25;5101955;28;20557;-70
2022/07/13 10:17:11;;;;;;;1.02;0.90;;;;;;;23.69;36.02;101194.25;5091966;28;20075;-69
2022/07/13 10:20:13;;;;;;;1.23;0.90;;;;;;;23.73;36.14;101186.41;5099822;28;20126;-68
2022/07/13 10:22:42;;;;;;;;;;;;;;;25.18;34.00;101189.31;5068833;28;20071;-71
2022/07/13 10:25:09;;;;;;;11.77;1.33;;;;;;;26.04;32.26;101193.53;5097526;28;19999;-70
2022/07/13 10:27:37;;;;;;;5.10;1.25;;;;;;;27.00;30.73;101186.78;5109649;28;20116;-72
2022/07/13 10:30:07;;;;;;;6.53;1.58;;;;;;;27.99;30.04;101181.91;5109223;28;20534;-72
2022/07/13 10:32:35;;;;;;;4.45;1.02;;;;;;;28.13;28.80;101183.09;5091688;28;20059;-72
2022/07/13 10:35:07;;;;;;;6.22;1.30;;;;;;;28.46;28.33;101183.84;5091083;28;20093;-71
2022/07/13 10:37:56;;;;;;;4.97;1.27;;;;;;;29.45;27.06;101170.84;5086350;28;20139;-72
2022/07/13 10:40:32;;;;;;;17.85;1.30;;;;;;;29.55;26.24;101182.75;5110411;28;20073;-71
2022/07/13 10:43:04;;;;;;;4.13;1.10;;;;;;;29.56;26.11;101181.63;5111738;28;20122;-72
2022/07/13 10:48:04;;;;;;;4.00;1.50;;;;;;;29.13;26.85;101181.03;5111848;28;20122;-71
2022/07/13 10:50:57;;;;;;;3.45;0.80;;;;;;;28.76;27.11;101172.91;5099162;28;20447;-71
2022/07/13 10:53:43;;;;;;;7.45;1.30;;;;;;;28.64;27.51;101178.69;5100811;28;20070;-71
2022/07/13 10:56:17;;;;;;;13.88;1.42;;;;;;;27.91;28.20;101164.78;5095667;28;20047;-71
2022/07/13 10:58:44;;;;;;;8.80;1.17;;;;;;;27.84;27.39;101169.66;5096161;28;20055;-71
2022/07/13 11:01:43;;;;;;;5.43;1.25;;;;;;;27.86;27.79;101166.63;5098604;28;20078;-71
2022/07/13 11:04:13;;;;;;;5.00;1.10;;;;;;;28.10;27.57;101175.34;5096067;28;20113;-71
2022/07/13 11:06:40;;;;;;;3.95;1.52;;;;;;;27.81;28.27;101172.13;5111531;28;20059;-71
2022/07/13 11:09:21;;;;;;;3.47;1.30;;;;;;;27.49;28.82;101170.22;5111424;28;20086;-71
2022/07/13 11:11:50;;;;;;;3.40;1.40;;;;;;;27.88;28.15;101164.47;5111513;28;20074;-71
2022/07/13 11:14:35;;;;;;;5.72;1.35;;;;;;;27.43;29.30;101158.31;5094233;28;20117;-71
2022/07/13 11:17:11;;;;;;;2.47;1.13;;;;;;;27.62;27.28;101166.19;5091113;28;20077;-71
2022/07/13 11:20:07;;;;;;;7.07;1.52;;;;;;;27.21;26.67;101163.91;5091516;28;20068;-71
2022/07/13 11:25:43;;;;;;;5.00;1.08;;;;;;;27.80;25.96;101157.50;5091217;28;20137;-71
2022/07/13 11:28:31;;;;;;;3.70;1.48;;;;;;;27.96;25.48;101158.44;5089733;28;20130;-71
2022/07/13 11:31:01;;;;;;;10.65;1.42;;;;;;;27.95;25.43;101154.88;5104038;28;20054;-71
2022/07/13 11:33:28;;;;;;;6.57;1.20;;;;;;;27.99;25.63;101155.16;5110934;28;20047;-71
2022/07/13 11:35:57;;;;;;;8.60;1.33;;;;;;;27.40;26.60;101158.84;5110819;28;20035;-71
2022/07/13 11:38:23;;;;;;;8.07;1.20;;;;;;;27.59;25.70;101158.44;5110650;28;20130;-71
2022/07/13 11:40:50;;;;;;;5.82;2.33;;;;;;;27.67;25.63;101150.53;5111218;28;20047;-71
2022/07/13 11:43:17;;;;;;;8.00;1.20;;;;;;;27.24;26.61;101146.84;5111214;28;20495;-71
2022/07/13 11:45:43;;;;;;;4.78;1.15;;;;;;;27.38;26.26;101138.16;5095799;28;20127;-71